Arickaree, Colorado
Current Conditions -  °F | °C
As of 1:55 PM on Thursday 27 Nov 2014 (Local Time) from KLIC Reporting Station
Clear Clear  
Wind Chill: 64°   Ceiling: Unl
Heat Index: 64°   Visibility: 10mi
Dew Point: 13°   Wind: 13mph
Humidity: 14%   Direction: 300°WNW
Pressure: 30.14"   Gusts: NA
Location:  39.6673°N, 103.47°W
Report Text: KLIC 272055Z AUTO 30011KT 10SM CLR 18/M11 A3014 RMK AO2 SLP192 T01781106 56021
Loading
Personal Weather Stations






























Interactive Weather Map New forecast layout! Learn more

10-Day Weather Forecast

Advertisements
Track Severe Weather on mobile